Time;durP1;ratioP1;P1;durP2;ratioP2;P2;SDS_P1;SDS_P2;PMS_P1;PMS_P2;Temp;Humidity;BMP_temperature;BMP_pressure;BME280_temperature;BME280_humidity;BME280_pressure;Samples;Min_cycle;Max_cycle;Signal;HPM_P1;HPM_P2
2022/01/31 00:00:30;;;;;;;5.50;1.30;;;;;;;3.22;90.49;99345.75;10495884;28;20254;-62
2022/01/31 00:05:43;;;;;;;14.70;1.93;;;;;;;3.20;88.46;99338.91;10457299;28;20303;-60
2022/01/31 00:10:46;;;;;;;14.40;2.20;;;;;;;3.20;90.00;99336.34;10479083;28;20189;-61
2022/01/31 00:15:54;;;;;;;2.03;0.50;;;;;;;3.18;90.89;99371.34;10485448;28;20195;-62
2022/01/31 00:20:59;;;;;;;2.47;0.80;;;;;;;3.22;86.81;99356.00;10463073;28;20289;-66
2022/01/31 00:26:02;;;;;;;3.43;1.00;;;;;;;3.26;85.27;99354.31;10456586;28;20630;-62
2022/01/31 00:31:06;;;;;;;3.50;0.60;;;;;;;3.30;83.69;99340.63;10456566;28;20508;-62
2022/01/31 00:36:11;;;;;;;33.87;15.10;;;;;;;3.54;83.18;99368.88;10484928;28;20208;-59
2022/01/31 00:41:14;;;;;;;4.27;1.00;;;;;;;3.42;83.42;99366.28;10497616;28;20279;-65
2022/01/31 00:46:23;;;;;;;3.57;1.00;;;;;;;3.36;83.14;99366.31;10498106;28;20228;-60
2022/01/31 00:51:28;;;;;;;7.67;1.60;;;;;;;3.39;84.47;99366.28;10498050;28;20198;-61
2022/01/31 00:56:31;;;;;;;6.07;1.50;;;;;;;3.35;83.88;99370.56;10496108;28;20215;-57
2022/01/31 01:01:34;;;;;;;6.27;0.90;;;;;;;3.36;84.27;99381.69;10497156;28;20194;-63
2022/01/31 01:06:39;;;;;;;19.40;11.07;;;;;;;3.34;84.70;99373.13;10497102;28;20252;-62
2022/01/31 01:11:42;;;;;;;1.60;0.40;;;;;;;3.36;84.78;99379.13;10486352;28;20271;-60
2022/01/31 01:16:46;;;;;;;1.77;0.60;;;;;;;3.26;84.89;99392.78;10506071;28;20215;-62
2022/01/31 01:21:50;;;;;;;1.70;0.50;;;;;;;3.26;84.18;99416.69;10546440;28;20231;-58
2022/01/31 01:26:54;;;;;;;1.97;0.60;;;;;;;3.12;84.12;99412.38;10546365;28;20230;-61
2022/01/31 01:31:57;;;;;;;3.33;0.90;;;;;;;3.15;83.99;99422.63;10546383;28;20226;-62
2022/01/31 01:37:03;;;;;;;1.63;0.57;;;;;;;3.04;81.76;99425.13;10546200;28;20740;-59
2022/01/31 01:42:07;;;;;;;2.63;0.63;;;;;;;2.93;80.47;99426.81;10546266;28;20212;-60
2022/01/31 01:47:11;;;;;;;1.27;0.60;;;;;;;2.88;80.00;99446.41;10545965;28;20227;-58
2022/01/31 01:52:19;;;;;;;4.70;0.80;;;;;;;2.89;79.69;99427.63;10545772;28;20239;-61
2022/01/31 01:57:23;;;;;;;2.63;0.60;;;;;;;2.82;79.47;99432.69;10545860;28;20641;-59
2022/01/31 02:02:26;;;;;;;4.47;0.80;;;;;;;2.74;78.95;99426.69;10545393;28;20233;-61
2022/01/31 02:07:31;;;;;;;3.37;0.77;;;;;;;2.72;79.10;99416.44;10545171;28;20330;-58
2022/01/31 02:12:41;;;;;;;3.83;0.77;;;;;;;2.75;78.52;99423.25;10545328;28;20225;-60
2022/01/31 02:17:44;;;;;;;5.10;0.90;;;;;;;2.66;78.65;99410.44;10533873;28;20228;-60
2022/01/31 02:22:50;;;;;;;2.83;0.60;;;;;;;2.72;78.78;99420.69;10501891;28;20322;-60
2022/01/31 02:27:53;;;;;;;7.77;0.93;;;;;;;2.82;78.88;99409.63;10502530;28;20230;-61
2022/01/31 02:32:56;;;;;;;6.43;1.10;;;;;;;2.88;79.56;99412.25;10502205;28;20713;-61
2022/01/31 02:38:01;;;;;;;3.73;1.00;;;;;;;2.83;79.14;99421.63;10502348;28;20226;-61
2022/01/31 02:43:04;;;;;;;5.60;1.43;;;;;;;2.87;79.80;99410.53;10501923;28;20617;-62
2022/01/31 02:48:07;;;;;;;4.50;1.27;;;;;;;2.87;82.10;99420.78;10501519;28;20227;-62
2022/01/31 02:53:23;;;;;;;3.77;1.00;;;;;;;2.76;85.59;99418.16;10490448;28;20608;-64
2022/01/31 02:58:29;;;;;;;3.77;1.10;;;;;;;2.80;88.95;99414.75;10462113;28;20229;-60
2022/01/31 03:03:32;;;;;;;8.10;1.50;;;;;;;2.68;93.40;99407.00;10497858;28;20609;-64
2022/01/31 03:08:36;;;;;;;5.60;0.93;;;;;;;2.60;95.36;99410.38;10493799;28;20235;-62
2022/01/31 03:13:40;;;;;;;5.97;1.43;;;;;;;2.52;100.00;99417.16;10498620;28;20216;-63
2022/01/31 03:18:43;;;;;;;6.03;1.00;;;;;;;2.34;100.00;99415.31;10503856;28;20304;-65
2022/01/31 03:23:50;;;;;;;4.37;0.77;;;;;;;2.28;100.00;99426.38;10503174;28;20289;-63
2022/01/31 03:28:53;;;;;;;4.37;1.00;;;;;;;2.21;100.00;99433.97;10503198;28;20581;-67
2022/01/31 03:33:57;;;;;;;2.17;0.63;;;;;;;2.21;100.00;99429.72;10502496;28;20560;-65
2022/01/31 03:39:02;;;;;;;4.70;0.90;;;;;;;2.28;100.00;99425.50;10487395;28;20228;-65
2022/01/31 03:44:06;;;;;;;6.27;0.90;;;;;;;2.21;100.00;99428.84;10461334;28;20307;-60
2022/01/31 03:49:09;;;;;;;9.77;2.83;;;;;;;2.25;100.00;99418.66;10460911;28;20239;-63
2022/01/31 03:54:14;;;;;;;2.77;1.00;;;;;;;2.24;100.00;99426.34;10461120;28;20549;-60
2022/01/31 03:59:17;;;;;;;4.07;1.00;;;;;;;2.21;100.00;99427.16;10460683;28;20228;-68
2022/01/31 04:04:20;;;;;;;4.23;1.10;;;;;;;2.22;100.00;99433.16;10460602;28;20220;-64
2022/01/31 04:09:25;;;;;;;7.47;1.60;;;;;;;2.27;100.00;99416.13;10460625;28;20223;-64
2022/01/31 04:14:28;;;;;;;11.80;1.40;;;;;;;2.30;100.00;99391.41;10460286;28;20231;-62
2022/01/31 04:19:31;;;;;;;6.60;1.73;;;;;;;2.42;100.00;99416.22;10459882;28;20213;-64
2022/01/31 04:24:36;;;;;;;6.90;1.80;;;;;;;2.49;100.00;99402.63;10459834;28;20240;-63
2022/01/31 04:29:40;;;;;;;8.20;1.70;;;;;;;2.41;100.00;99383.81;10476845;28;20226;-65
2022/01/31 04:34:44;;;;;;;7.80;1.80;;;;;;;2.40;100.00;99405.09;10476125;28;20224;-62
2022/01/31 04:39:48;;;;;;;10.07;1.97;;;;;;;2.52;100.00;99401.78;10460235;28;20227;-61
2022/01/31 04:44:53;;;;;;;8.23;1.57;;;;;;;2.55;100.00;99392.44;10500270;28;20243;-63
2022/01/31 04:49:57;;;;;;;7.57;1.87;;;;;;;2.40;100.00;99396.59;10499344;28;20208;-64
2022/01/31 04:55:01;;;;;;;10.40;2.43;;;;;;;2.38;100.00;99403.41;10473153;28;20229;-64
2022/01/31 05:00:06;;;;;;;9.43;3.07;;;;;;;2.38;100.00;99411.09;10459175;28;20213;-64
2022/01/31 05:05:10;;;;;;;8.80;2.40;;;;;;;2.34;100.00;99407.66;10458878;28;20220;-61
2022/01/31 05:10:14;;;;;;;10.97;2.23;;;;;;;2.29;100.00;99399.94;10458685;28;20216;-63
2022/01/31 05:15:17;;;;;;;8.23;2.10;;;;;;;2.32;100.00;99406.78;10458943;28;20235;-66
2022/01/31 05:20:21;;;;;;;11.03;2.37;;;;;;;2.23;100.00;99406.69;10458216;28;20259;-64
2022/01/31 05:25:25;;;;;;;10.03;1.80;;;;;;;2.34;100.00;99397.41;10458370;28;20531;-67
2022/01/31 05:30:29;;;;;;;15.23;4.27;;;;;;;2.40;98.74;99400.00;10458352;28;20217;-65
2022/01/31 05:35:32;;;;;;;6.73;2.10;;;;;;;2.16;98.91;99402.38;10458488;28;20228;-66
2022/01/31 05:40:39;;;;;;;10.20;2.37;;;;;;;2.29;98.25;99384.59;10458231;28;20252;-65
2022/01/31 05:45:42;;;;;;;44.03;23.17;;;;;;;2.17;97.99;99379.34;10458133;28;20234;-65
2022/01/31 05:50:48;;;;;;;8.10;1.90;;;;;;;2.17;100.00;99379.34;10458012;28;20271;-65
2022/01/31 05:55:53;;;;;;;13.40;2.53;;;;;;;2.07;98.55;99381.84;10463650;28;20622;-64
2022/01/31 06:00:56;;;;;;;13.63;2.70;;;;;;;1.92;100.00;99369.78;10465416;28;20212;-65
2022/01/31 06:05:59;;;;;;;10.10;2.90;;;;;;;1.97;99.70;99380.03;10465001;28;20221;-64
2022/01/31 06:11:03;;;;;;;13.43;2.50;;;;;;;2.00;99.99;99380.94;10464787;28;20300;-62
2022/01/31 06:16:07;;;;;;;9.97;3.00;;;;;;;1.88;100.00;99378.25;10464569;28;20304;-67
2022/01/31 06:21:11;;;;;;;10.97;2.53;;;;;;;2.00;100.00;99388.59;10464311;28;20228;-63
2022/01/31 06:26:15;;;;;;;13.17;3.30;;;;;;;1.99;100.00;99379.22;10464550;28;20549;-65
2022/01/31 06:31:19;;;;;;;14.23;5.07;;;;;;;1.85;100.00;99370.56;10464300;28;20217;-62
2022/01/31 06:36:23;;;;;;;10.67;3.03;;;;;;;1.94;100.00;99373.22;10463941;28;20234;-65
2022/01/31 06:41:28;;;;;;;13.97;3.07;;;;;;;2.00;100.00;99367.28;10463764;28;20844;-66
2022/01/31 06:46:32;;;;;;;14.87;3.03;;;;;;;2.08;100.00;99369.06;10463547;28;20224;-61
2022/01/31 06:51:37;;;;;;;10.40;3.30;;;;;;;2.01;98.85;99366.44;10463553;28;20716;-63
2022/01/31 06:56:44;;;;;;;15.40;2.87;;;;;;;2.03;98.12;99357.06;10485121;28;20226;-66
2022/01/31 07:01:47;;;;;;;8.87;2.10;;;;;;;1.87;97.63;99358.66;10466007;28;20307;-64
2022/01/31 07:06:50;;;;;;;12.23;3.03;;;;;;;1.80;97.70;99353.47;10462158;28;20235;-65
2022/01/31 07:11:59;;;;;;;18.73;3.00;;;;;;;1.83;96.97;99349.25;10462637;28;20315;-62
2022/01/31 07:17:04;;;;;;;15.90;3.53;;;;;;;1.80;97.21;99354.34;10462427;28;20216;-61
2022/01/31 07:22:11;;;;;;;11.70;2.50;;;;;;;1.84;97.17;99355.22;10462158;28;20251;-64
2022/01/31 07:27:16;;;;;;;10.60;2.50;;;;;;;1.99;97.30;99348.53;10487018;28;20558;-63
2022/01/31 07:32:20;;;;;;;10.67;2.40;;;;;;;2.07;97.72;99367.34;10495849;28;20200;-65
2022/01/31 07:37:23;;;;;;;7.73;2.70;;;;;;;1.91;98.34;99354.44;10493989;28;20275;-62
2022/01/31 07:42:28;;;;;;;10.37;3.03;;;;;;;1.96;97.95;99353.63;10499966;28;20188;-65
2022/01/31 07:47:31;;;;;;;23.73;3.97;;;;;;;2.12;99.13;99360.53;10501620;28;20218;-64
2022/01/31 07:52:34;;;;;;;13.23;3.83;;;;;;;2.16;96.96;99357.19;10499471;28;20283;-68
2022/01/31 07:57:40;;;;;;;12.57;3.30;;;;;;;2.26;98.29;99346.16;10495677;28;20200;-64
2022/01/31 08:02:44;;;;;;;11.17;3.27;;;;;;;2.34;97.68;99336.84;10498297;28;20184;-65
2022/01/31 08:07:48;;;;;;;14.87;3.33;;;;;;;2.30;96.35;99329.09;10499555;28;20689;-67
2022/01/31 08:12:54;;;;;;;10.40;2.43;;;;;;;2.21;96.68;99340.16;10145882;27;10000078;-65
2022/01/31 08:18:04;;;;;;;16.57;2.80;;;;;;;2.19;95.91;99341.00;10494598;28;20671;-63
2022/01/31 08:23:07;;;;;;;11.40;2.60;;;;;;;2.26;96.59;99332.53;10495510;28;20234;-65
2022/01/31 08:28:12;;;;;;;10.10;2.57;;;;;;;2.39;94.91;99334.28;10494028;28;20559;-62
2022/01/31 08:33:32;;;;;;;15.47;2.80;;;;;;;2.43;94.90;99332.59;10496594;28;20695;-59
2022/01/31 08:38:38;;;;;;;7.40;2.53;;;;;;;2.55;93.30;99323.28;10496459;28;20212;-63
2022/01/31 08:43:42;;;;;;;11.40;2.93;;;;;;;2.45;90.47;99310.44;10495920;28;20216;-65
2022/01/31 08:48:46;;;;;;;9.03;2.73;;;;;;;2.46;91.29;99307.88;10494175;28;20216;-64
2022/01/31 08:53:49;;;;;;;17.00;3.50;;;;;;;2.40;91.07;99319.78;10494942;28;20685;-65
2022/01/31 08:58:55;;;;;;;9.60;2.53;;;;;;;2.64;90.84;99313.06;10495995;28;20216;-65
2022/01/31 09:04:04;;;;;;;7.17;2.17;;;;;;;2.60;88.96;99323.31;10485471;28;20224;-63
2022/01/31 09:09:09;;;;;;;7.20;2.90;;;;;;;2.44;87.95;99316.38;10490964;28;20303;-62
2022/01/31 09:14:14;;;;;;;13.23;3.23;;;;;;;2.61;87.97;99314.75;10493642;28;20212;-63
2022/01/31 09:19:17;;;;;;;12.70;2.33;;;;;;;2.73;86.67;99305.44;10487655;28;20208;-65
2022/01/31 09:24:20;;;;;;;6.57;1.90;;;;;;;2.92;85.91;99291.84;10490176;28;20603;-64
2022/01/31 09:29:25;;;;;;;34.20;10.93;;;;;;;3.09;85.22;99297.03;10482549;28;20554;-63
2022/01/31 09:34:30;;;;;;;8.07;1.83;;;;;;;3.12;84.42;99277.34;10491730;28;20553;-62
2022/01/31 09:39:35;;;;;;;9.70;4.27;;;;;;;3.20;83.45;99269.69;10504196;28;20541;-66
2022/01/31 09:44:49;;;;;;;8.30;2.73;;;;;;;3.16;81.75;99258.56;10499493;28;20584;-64
2022/01/31 09:50:00;;;;;;;9.37;2.10;;;;;;;3.13;81.09;99250.03;10503876;28;20288;-66
2022/01/31 09:55:07;;;;;;;8.00;1.83;;;;;;;3.26;78.58;99254.34;10501581;28;20218;-64
2022/01/31 10:00:12;;;;;;;15.47;2.20;;;;;;;3.34;78.37;99243.22;10503718;28;20303;-65
2022/01/31 10:05:28;;;;;;;12.43;2.60;;;;;;;3.53;76.36;99238.94;10504563;28;20326;-65
2022/01/31 10:10:39;;;;;;;9.53;2.20;;;;;;;4.00;76.04;99231.19;10504172;28;20216;-64
2022/01/31 10:21:22;;;;;;;10.93;1.97;;;;;;;4.31;72.01;99218.28;10504071;28;20261;-66
2022/01/31 10:26:30;;;;;;;7.80;2.30;;;;;;;4.61;70.85;99219.84;10503246;28;20220;-62
2022/01/31 10:31:35;;;;;;;6.87;2.00;;;;;;;4.87;69.06;99214.59;10504641;28;20222;-65
2022/01/31 10:36:38;;;;;;;6.13;1.70;;;;;;;5.43;67.71;99208.19;10504020;28;20549;-64
2022/01/31 10:53:01;;;;;;;7.27;1.63;;;;;;;5.36;66.39;99192.78;10471976;28;20223;-65
2022/01/31 10:58:06;;;;;;;10.97;2.50;;;;;;;6.48;63.50;99174.47;10502681;28;20233;-66
2022/01/31 11:03:31;;;;;;;5.63;1.30;;;;;;;7.08;60.32;99165.88;10503553;28;20544;-63
2022/01/31 11:08:35;;;;;;;15.77;6.90;;;;;;;6.41;58.43;99158.25;10504040;28;20228;-68
2022/01/31 11:13:39;;;;;;;11.10;2.40;;;;;;;6.74;57.28;99167.25;10503018;28;20287;-65
2022/01/31 11:18:44;;;;;;;8.43;2.13;;;;;;;6.49;59.94;99158.97;10502777;28;20212;-66
2022/01/31 11:23:51;;;;;;;7.83;1.90;;;;;;;5.65;59.38;99177.94;10501160;28;20245;-66
2022/01/31 11:28:55;;;;;;;8.83;2.20;;;;;;;5.30;61.05;99182.53;10500241;28;20219;-63
2022/01/31 11:34:01;;;;;;;7.00;1.57;;;;;;;5.36;59.73;99190.22;10501714;28;20208;-66
2022/01/31 11:39:08;;;;;;;8.27;1.60;;;;;;;5.55;58.90;99184.91;10501706;28;20223;-64
2022/01/31 11:44:20;;;;;;;5.27;1.33;;;;;;;6.65;57.28;99196.59;10501441;28;20231;-63
2022/01/31 11:49:25;;;;;;;7.67;1.87;;;;;;;7.26;54.27;99181.06;10499470;28;20274;-65
2022/01/31 11:54:29;;;;;;;9.10;1.27;;;;;;;7.67;51.99;99188.97;10501459;28;20222;-64
2022/01/31 11:59:38;;;;;;;4.70;1.20;;;;;;;7.46;51.26;99180.72;10500665;28;20216;-64
2022/01/31 12:04:48;;;;;;;4.50;1.20;;;;;;;7.53;53.24;99177.16;10498216;28;20283;-66
2022/01/31 12:09:55;;;;;;;3.57;1.17;;;;;;;6.13;54.17;99187.78;10497840;28;20267;-65
2022/01/31 12:15:43;;;;;;;7.90;1.97;;;;;;;6.21;53.97;99180.81;10491798;28;20216;-66
2022/01/31 12:26:51;;;;;;;5.13;1.50;;;;;;;7.51;51.12;99184.09;10498549;28;20707;-66
2022/01/31 12:31:57;;;;;;;7.77;1.70;;;;;;;7.45;51.72;99177.31;10455144;28;20234;-64
2022/01/31 12:37:02;;;;;;;7.10;3.37;;;;;;;7.68;51.86;99175.19;10499503;28;20222;-63
2022/01/31 12:42:44;;;;;;;5.77;1.60;;;;;;;6.76;55.26;99161.22;10499548;28;20302;-70
2022/01/31 12:48:16;;;;;;;7.87;2.03;;;;;;;7.25;53.95;99157.88;10495586;28;20223;-64
2022/01/31 12:53:43;;;;;;;9.60;1.80;;;;;;;6.74;55.45;99174.97;10494883;28;20234;-65
2022/01/31 12:58:49;;;;;;;8.87;3.03;;;;;;;6.78;54.68;99172.31;10490665;28;20202;-65
2022/01/31 13:03:57;;;;;;;9.70;3.10;;;;;;;6.28;54.52;99177.28;10501944;28;20267;-67
2022/01/31 13:09:05;;;;;;;5.40;1.70;;;;;;;6.44;56.09;99165.91;10506486;28;20215;-64
2022/01/31 13:14:13;;;;;;;6.20;1.70;;;;;;;5.81;55.40;99197.53;10505743;28;20198;-67
2022/01/31 13:19:40;;;;;;;4.37;1.60;;;;;;;5.68;57.35;99217.38;10507410;28;20572;-64
2022/01/31 13:24:45;;;;;;;8.30;1.60;;;;;;;5.24;54.86;99214.34;10505750;28;20180;-65
2022/01/31 13:29:53;;;;;;;9.10;2.17;;;;;;;5.50;56.32;99202.13;10501812;28;20230;-64
2022/01/31 13:34:59;;;;;;;5.53;1.40;;;;;;;5.05;56.70;99210.19;10506783;28;20200;-65
2022/01/31 13:40:07;;;;;;;10.33;1.70;;;;;;;4.81;56.42;99210.31;10504026;28;20180;-66
2022/01/31 13:45:16;;;;;;;8.90;1.47;;;;;;;4.66;57.45;99208.69;10505188;28;20200;-66
2022/01/31 13:50:27;;;;;;;4.93;1.50;;;;;;;4.26;59.17;99227.69;10503683;28;20562;-64
2022/01/31 13:55:32;;;;;;;7.07;2.17;;;;;;;4.14;59.79;99238.00;10496270;28;20283;-66
2022/01/31 14:00:38;;;;;;;29.47;11.00;;;;;;;3.61;60.95;99239.78;10505868;28;20216;-63
2022/01/31 14:05:58;;;;;;;10.13;1.90;;;;;;;3.71;60.88;99238.09;10501509;28;20541;-65
2022/01/31 14:11:10;;;;;;;10.97;2.13;;;;;;;3.76;60.91;99237.22;10495921;28;20230;-64
2022/01/31 14:16:16;;;;;;;6.80;1.97;;;;;;;3.75;61.37;99232.94;10503576;28;20222;-65
2022/01/31 14:21:22;;;;;;;9.67;1.93;;;;;;;3.78;60.66;99230.38;10502251;28;20250;-62
2022/01/31 14:26:36;;;;;;;8.33;1.60;;;;;;;3.53;61.51;99231.25;10504892;28;20589;-66
2022/01/31 14:31:41;;;;;;;7.73;2.13;;;;;;;3.37;62.20;99240.66;10502487;28;20227;-62
2022/01/31 14:37:07;;;;;;;11.40;2.73;;;;;;;3.51;62.79;99248.34;10503011;28;20282;-64
2022/01/31 14:42:31;;;;;;;9.07;2.33;;;;;;;3.33;63.68;99241.50;10500471;28;20196;-66
2022/01/31 14:47:41;;;;;;;9.20;2.63;;;;;;;3.43;65.29;99247.50;10503807;28;20525;-65
2022/01/31 14:52:47;;;;;;;9.43;2.67;;;;;;;3.34;67.56;99248.34;10502709;28;20184;-64
2022/01/31 14:57:53;;;;;;;9.23;2.53;;;;;;;3.20;65.35;99244.91;10503384;28;20566;-66
2022/01/31 15:02:56;;;;;;;9.40;2.70;;;;;;;3.18;67.99;99253.44;10503596;28;20184;-65
2022/01/31 15:08:01;;;;;;;13.10;3.63;;;;;;;3.06;69.96;99248.31;10495622;28;20281;-65
2022/01/31 15:13:05;;;;;;;9.07;3.37;;;;;;;3.10;70.56;99253.44;10496879;28;20200;-63
2022/01/31 15:18:13;;;;;;;10.67;3.27;;;;;;;2.97;70.66;99258.56;10500937;28;20285;-66
2022/01/31 15:23:21;;;;;;;10.40;2.50;;;;;;;3.09;69.36;99254.28;10502533;28;20216;-62
2022/01/31 15:28:24;;;;;;;10.03;2.63;;;;;;;3.05;68.80;99261.97;10500956;28;20299;-63
2022/01/31 15:33:28;;;;;;;10.83;2.30;;;;;;;3.07;69.43;99270.53;10499017;28;20230;-62
2022/01/31 15:38:35;;;;;;;9.70;2.10;;;;;;;3.07;68.72;99275.66;10500494;28;20218;-62
2022/01/31 15:43:40;;;;;;;9.73;2.40;;;;;;;3.08;68.64;99287.59;10497079;28;20208;-65
2022/01/31 15:48:55;;;;;;;8.43;1.93;;;;;;;3.01;68.32;99280.75;10500981;28;20229;-62
2022/01/31 15:54:02;;;;;;;14.73;3.17;;;;;;;2.97;68.50;99263.69;10501743;28;20216;-67
2022/01/31 15:59:06;;;;;;;14.70;3.43;;;;;;;2.98;69.68;99275.63;10501302;28;20299;-64
2022/01/31 16:04:09;;;;;;;11.03;3.60;;;;;;;2.88;73.55;99279.03;10479934;28;20337;-63
2022/01/31 16:09:14;;;;;;;10.13;3.47;;;;;;;2.93;72.31;99277.31;10463853;28;20216;-66
2022/01/31 16:14:18;;;;;;;14.70;3.90;;;;;;;2.97;72.71;99272.19;10501035;28;20296;-63
2022/01/31 16:19:21;;;;;;;12.90;3.43;;;;;;;2.89;72.61;99281.59;10501460;28;20222;-66
2022/01/31 16:24:26;;;;;;;9.90;2.50;;;;;;;2.88;72.01;99300.34;10500882;28;20329;-66
2022/01/31 16:29:29;;;;;;;17.97;6.37;;;;;;;2.90;73.06;99293.53;10497609;28;20220;-67
2022/01/31 16:34:32;;;;;;;8.73;2.63;;;;;;;2.88;71.01;99295.22;10482223;28;20212;-62
2022/01/31 16:39:37;;;;;;;6.10;2.40;;;;;;;2.87;68.61;99297.78;10455095;28;20705;-62
2022/01/31 16:44:41;;;;;;;9.40;2.20;;;;;;;2.79;66.64;99299.47;10456220;28;20220;-64
2022/01/31 16:49:46;;;;;;;7.10;1.93;;;;;;;2.80;66.28;99301.19;10486722;28;20280;-65
2022/01/31 16:54:54;;;;;;;6.90;2.13;;;;;;;2.68;67.93;99290.88;10497396;28;20224;-61
2022/01/31 16:59:58;;;;;;;5.97;1.90;;;;;;;2.63;67.41;99302.81;10497070;28;20216;-62
2022/01/31 17:05:01;;;;;;;5.80;2.13;;;;;;;2.51;67.57;99310.44;10496726;28;20208;-66
2022/01/31 17:10:09;;;;;;;27.80;9.83;;;;;;;2.48;68.11;99302.75;10496440;28;20230;-62
2022/01/31 17:15:14;;;;;;;8.83;2.30;;;;;;;2.49;67.34;99304.47;10496148;28;20212;-63
2022/01/31 17:20:21;;;;;;;15.03;5.50;;;;;;;2.43;67.74;99301.88;10493902;28;20235;-68
2022/01/31 17:25:25;;;;;;;8.80;3.10;;;;;;;2.23;69.39;99312.00;10491722;28;20222;-64
2022/01/31 17:30:29;;;;;;;7.73;2.70;;;;;;;2.12;69.54;99311.94;10179771;27;10000252;-64
2022/01/31 17:35:35;;;;;;;6.83;2.57;;;;;;;1.95;70.31;99305.84;10538443;28;20226;-63
2022/01/31 17:40:40;;;;;;;7.10;2.53;;;;;;;1.87;72.01;99317.72;10465237;28;20415;-64
2022/01/31 17:45:43;;;;;;;11.50;3.17;;;;;;;1.81;71.13;99317.66;10496872;28;20222;-65
2022/01/31 17:50:47;;;;;;;8.87;3.40;;;;;;;1.73;71.67;99323.56;10503209;28;20244;-63
2022/01/31 17:55:52;;;;;;;8.67;2.37;;;;;;;1.62;72.32;99325.19;10506803;28;20553;-63
2022/01/31 18:00:58;;;;;;;8.90;2.77;;;;;;;1.63;72.25;99327.78;10506703;28;20681;-65
2022/01/31 18:06:02;;;;;;;7.20;3.33;;;;;;;1.63;71.82;99334.56;10506746;28;20216;-61
2022/01/31 18:11:06;;;;;;;8.30;2.90;;;;;;;1.53;72.29;99343.88;10506466;28;20661;-65
2022/01/31 18:16:09;;;;;;;11.57;3.23;;;;;;;1.46;73.36;99354.88;10506045;28;20227;-67
2022/01/31 18:21:13;;;;;;;9.30;2.97;;;;;;;1.42;73.75;99358.25;10503973;28;20692;-65
2022/01/31 18:26:20;;;;;;;10.68;3.60;;;;;;;1.42;73.30;99367.59;10502284;28;20506;-64
2022/01/31 18:31:23;;;;;;;12.07;4.37;;;;;;;1.40;73.71;99367.59;10502846;28;20661;-63
2022/01/31 18:36:26;;;;;;;16.87;3.80;;;;;;;1.34;73.87;99367.53;10502432;28;20514;-66
2022/01/31 18:41:33;;;;;;;15.37;3.87;;;;;;;1.28;73.91;99382.78;10501970;28;20194;-64
2022/01/31 18:46:37;;;;;;;12.23;3.10;;;;;;;1.22;72.88;99390.41;10502174;28;20196;-65
2022/01/31 18:51:42;;;;;;;10.07;4.67;;;;;;;1.15;73.33;99386.06;10501827;28;20217;-63
2022/01/31 18:56:48;;;;;;;10.93;3.73;;;;;;;1.05;72.97;99389.34;10137887;27;9999836;-68
2022/01/31 19:01:52;;;;;;;11.50;4.03;;;;;;;0.99;74.65;99399.47;10466863;28;20222;-66
2022/01/31 19:06:55;;;;;;;10.80;3.63;;;;;;;1.02;73.33;99396.97;10459634;28;20207;-61
2022/01/31 19:12:02;;;;;;;13.10;3.40;;;;;;;0.86;74.15;99401.03;10459203;28;20238;-65
2022/01/31 19:17:06;;;;;;;10.73;3.67;;;;;;;0.90;73.40;99414.69;10459339;28;20241;-65
2022/01/31 19:22:10;;;;;;;10.93;4.13;;;;;;;0.84;72.34;99415.50;10459092;28;20241;-64
2022/01/31 19:27:15;;;;;;;12.93;4.10;;;;;;;0.83;74.56;99426.53;10459028;28;20308;-63
2022/01/31 19:32:19;;;;;;;12.23;3.47;;;;;;;0.82;73.13;99429.06;10458603;28;20987;-64
2022/01/31 19:37:22;;;;;;;15.47;3.63;;;;;;;0.79;73.46;99434.13;10458402;28;20216;-66
2022/01/31 19:47:47;;;;;;;10.27;3.10;;;;;;;0.92;72.74;99436.88;10458031;28;20541;-67
2022/01/31 19:52:50;;;;;;;12.37;3.87;;;;;;;0.96;72.17;99432.66;10457691;28;20308;-64
2022/01/31 19:57:55;;;;;;;13.23;3.43;;;;;;;0.97;73.26;99442.03;10535737;28;20216;-62
2022/01/31 20:03:06;;;;;;;12.30;3.17;;;;;;;1.08;71.05;99443.03;10540692;28;20294;-66
2022/01/31 20:08:10;;;;;;;10.30;3.07;;;;;;;1.13;71.09;99446.50;10540374;28;20298;-63
2022/01/31 20:13:16;;;;;;;10.03;2.87;;;;;;;1.19;70.96;99457.66;10529310;28;20680;-62
2022/01/31 20:18:20;;;;;;;8.70;3.33;;;;;;;1.13;71.97;99466.94;10498057;28;20216;-64
2022/01/31 20:23:29;;;;;;;10.77;3.47;;;;;;;1.14;70.48;99464.41;10498149;28;20240;-66
2022/01/31 20:28:36;;;;;;;13.87;4.83;;;;;;;1.08;72.28;99469.44;10497847;28;20220;-64
2022/01/31 20:33:40;;;;;;;13.13;3.80;;;;;;;1.17;72.89;99473.81;10497741;28;20230;-64
2022/01/31 20:38:50;;;;;;;13.80;3.53;;;;;;;1.08;72.71;99473.69;10497747;28;20323;-65
2022/01/31 20:43:59;;;;;;;18.83;5.03;;;;;;;1.07;72.67;99472.81;10497567;28;20306;-68
2022/01/31 20:49:02;;;;;;;14.57;5.23;;;;;;;1.05;73.22;99473.66;10498000;28;20234;-65
2022/01/31 20:54:05;;;;;;;14.00;5.80;;;;;;;0.99;74.63;99478.66;10504802;28;20298;-67
2022/01/31 20:59:15;;;;;;;12.83;3.97;;;;;;;0.97;74.06;99478.66;10531729;28;20637;-64
2022/01/31 21:04:18;;;;;;;14.13;4.50;;;;;;;0.97;75.05;99485.44;10496939;28;20522;-64
2022/01/31 21:09:21;;;;;;;10.57;3.43;;;;;;;1.00;75.59;99488.91;10497099;28;20244;-63
2022/01/31 21:14:27;;;;;;;13.80;4.73;;;;;;;0.98;77.22;99488.00;10496728;28;20234;-63
2022/01/31 21:19:30;;;;;;;11.87;4.17;;;;;;;1.00;76.29;99482.97;10497144;28;20219;-64
2022/01/31 21:24:33;;;;;;;15.90;4.83;;;;;;;1.10;75.82;99500.94;10498449;28;20762;-64
2022/01/31 21:29:37;;;;;;;9.87;4.27;;;;;;;1.04;76.90;99497.47;10504406;28;20238;-65
2022/01/31 21:34:41;;;;;;;11.27;3.87;;;;;;;1.11;77.86;99504.38;10504827;28;20226;-65
2022/01/31 21:39:44;;;;;;;14.93;4.63;;;;;;;1.10;78.27;99507.78;10504910;28;20222;-66
2022/01/31 21:44:49;;;;;;;9.43;3.90;;;;;;;1.06;76.69;99516.22;10503451;28;20542;-66
2022/01/31 21:49:52;;;;;;;14.07;3.43;;;;;;;1.09;78.21;99523.94;10504410;28;20227;-64
2022/01/31 21:54:55;;;;;;;11.90;4.63;;;;;;;1.18;76.48;99524.94;10517043;28;20644;-67
2022/01/31 22:00:00;;;;;;;12.67;4.40;;;;;;;1.14;77.08;99527.41;10506481;28;20212;-65
2022/01/31 22:05:04;;;;;;;12.03;3.30;;;;;;;1.20;76.21;99522.38;10503759;28;20226;-66
2022/01/31 22:10:11;;;;;;;9.00;3.43;;;;;;;1.18;75.96;99531.72;10503186;28;20216;-67
2022/01/31 22:15:16;;;;;;;11.73;3.70;;;;;;;1.16;75.08;99529.16;10502503;28;20307;-65
2022/01/31 22:20:19;;;;;;;13.63;4.27;;;;;;;1.15;75.25;99531.69;10502873;28;20231;-66
2022/01/31 22:25:23;;;;;;;11.90;4.40;;;;;;;1.11;74.85;99540.16;10502585;28;20210;-65
2022/01/31 22:30:27;;;;;;;14.23;4.00;;;;;;;1.11;74.97;99535.91;10502653;28;20222;-65
2022/01/31 22:35:31;;;;;;;10.43;4.30;;;;;;;1.09;74.97;99539.25;10501261;28;20194;-69
2022/01/31 22:40:34;;;;;;;13.80;4.80;;;;;;;1.01;75.42;99539.16;10502327;28;20223;-68
2022/01/31 22:45:39;;;;;;;16.43;4.90;;;;;;;1.10;76.06;99546.09;10502727;28;20641;-66
2022/01/31 22:50:43;;;;;;;12.23;4.77;;;;;;;1.07;75.94;99548.63;10502744;28;20216;-65
2022/01/31 22:55:46;;;;;;;16.67;4.77;;;;;;;1.08;75.62;99552.88;10522903;28;20211;-69
2022/01/31 23:00:51;;;;;;;12.47;4.87;;;;;;;1.09;75.09;99552.03;10543868;28;20222;-60
2022/01/31 23:05:54;;;;;;;14.97;5.10;;;;;;;1.16;74.75;99552.16;10543379;28;20527;-65
2022/01/31 23:10:58;;;;;;;19.27;5.47;;;;;;;1.02;75.36;99553.66;10542689;28;20223;-64
2022/01/31 23:16:06;;;;;;;12.53;4.70;;;;;;;0.99;76.47;99560.41;10542990;28;20215;-63
2022/01/31 23:21:17;;;;;;;13.57;4.53;;;;;;;0.98;76.34;99567.19;10502961;28;20681;-64
2022/01/31 23:42:36;;;;;;;16.67;4.70;;;;;;;0.76;75.40;99585.59;10499958;28;20222;-65
2022/01/31 23:53:18;;;;;;;14.97;4.50;;;;;;;0.81;75.96;99580.56;10499362;28;20211;-63
